sensor_id;sensor_type;location;lat;lon;timestamp;pressure;altitude;pressure_sealevel;temperature;humidity
68634;BME280;55625;47.072;22.192;2022-11-13T00:00:51;101447.72;;;4.63;100.00
68634;BME280;55625;47.072;22.192;2022-11-13T00:03:18;101444.56;;;4.64;99.72
68634;BME280;55625;47.072;22.192;2022-11-13T00:05:44;101446.47;;;4.60;99.68
68634;BME280;55625;47.072;22.192;2022-11-13T00:08:10;101444.47;;;4.61;100.00
68634;BME280;55625;47.072;22.192;2022-11-13T00:10:35;101444.47;;;4.61;99.60
68634;BME280;55625;47.072;22.192;2022-11-13T00:13:01;101446.00;;;4.58;100.00
68634;BME280;55625;47.072;22.192;2022-11-13T00:15:27;101443.66;;;4.60;100.00
68634;BME280;55625;47.072;22.192;2022-11-13T00:17:53;101447.66;;;4.59;100.00
68634;BME280;55625;47.072;22.192;2022-11-13T00:20:19;101446.31;;;4.53;100.00
68634;BME280;55625;47.072;22.192;2022-11-13T00:22:45;101452.38;;;4.55;100.00
68634;BME280;55625;47.072;22.192;2022-11-13T00:25:12;101443.13;;;4.55;100.00
68634;BME280;55625;47.072;22.192;2022-11-13T00:27:37;101445.44;;;4.49;100.00
68634;BME280;55625;47.072;22.192;2022-11-13T00:30:04;101445.88;;;4.51;100.00
68634;BME280;55625;47.072;22.192;2022-11-13T00:32:30;101436.19;;;4.49;100.00
68634;BME280;55625;47.072;22.192;2022-11-13T00:34:56;101434.63;;;4.51;100.00
68634;BME280;55625;47.072;22.192;2022-11-13T00:37:22;101427.06;;;4.55;100.00
68634;BME280;55625;47.072;22.192;2022-11-13T00:39:48;101428.25;;;4.54;100.00
68634;BME280;55625;47.072;22.192;2022-11-13T00:42:13;101432.69;;;4.55;100.00
68634;BME280;55625;47.072;22.192;2022-11-13T00:44:39;101436.25;;;4.52;100.00
68634;BME280;55625;47.072;22.192;2022-11-13T00:47:05;101431.81;;;4.51;100.00
68634;BME280;55625;47.072;22.192;2022-11-13T00:49:31;101429.75;;;4.48;100.00
68634;BME280;55625;47.072;22.192;2022-11-13T00:51:57;101432.56;;;4.48;100.00
68634;BME280;55625;47.072;22.192;2022-11-13T00:54:24;101425.31;;;4.47;100.00
68634;BME280;55625;47.072;22.192;2022-11-13T00:56:50;101429.75;;;4.48;100.00
68634;BME280;55625;47.072;22.192;2022-11-13T00:59:16;101433.00;;;4.50;100.00
68634;BME280;55625;47.072;22.192;2022-11-13T01:01:42;101428.03;;;4.44;100.00
68634;BME280;55625;47.072;22.192;2022-11-13T01:04:08;101428.03;;;4.44;100.00
68634;BME280;55625;47.072;22.192;2022-11-13T01:06:33;101420.81;;;4.43;100.00
68634;BME280;55625;47.072;22.192;2022-11-13T01:08:59;101419.91;;;4.39;100.00
68634;BME280;55625;47.072;22.192;2022-11-13T01:11:28;101411.94;;;4.41;100.00
68634;BME280;55625;47.072;22.192;2022-11-13T01:13:54;101412.75;;;4.41;100.00
68634;BME280;55625;47.072;22.192;2022-11-13T01:16:23;101415.09;;;4.39;100.00
68634;BME280;55625;47.072;22.192;2022-11-13T01:18:54;101411.94;;;4.41;100.00
68634;BME280;55625;47.072;22.192;2022-11-13T01:21:23;101402.25;;;4.38;100.00
68634;BME280;55625;47.072;22.192;2022-11-13T01:23:50;101409.84;;;4.38;100.00
68634;BME280;55625;47.072;22.192;2022-11-13T01:26:21;101399.06;;;4.40;100.00
68634;BME280;55625;47.072;22.192;2022-11-13T01:28:47;101399.94;;;4.44;100.00
68634;BME280;55625;47.072;22.192;2022-11-13T01:31:17;101400.69;;;4.41;100.00
68634;BME280;55625;47.072;22.192;2022-11-13T01:33:45;101400.69;;;4.41;100.00
68634;BME280;55625;47.072;22.192;2022-11-13T01:36:19;101409.50;;;4.39;100.00
68634;BME280;55625;47.072;22.192;2022-11-13T01:38:45;101408.69;;;4.39;100.00
68634;BME280;55625;47.072;22.192;2022-11-13T01:41:30;101395.81;;;4.38;99.97
68634;BME280;55625;47.072;22.192;2022-11-13T01:43:57;101407.88;;;4.38;99.82
68634;BME280;55625;47.072;22.192;2022-11-13T01:46:39;101410.22;;;4.36;100.00
68634;BME280;55625;47.072;22.192;2022-11-13T01:49:13;101410.09;;;4.29;99.69
68634;BME280;55625;47.072;22.192;2022-11-13T01:54:21;101405.91;;;4.23;99.81
68634;BME280;55625;47.072;22.192;2022-11-13T01:56:48;101407.53;;;4.24;99.97
68634;BME280;55625;47.072;22.192;2022-11-13T01:59:28;101399.03;;;4.20;99.65
68634;BME280;55625;47.072;22.192;2022-11-13T02:01:55;101396.16;;;4.17;99.45
68634;BME280;55625;47.072;22.192;2022-11-13T02:04:22;101392.47;;;4.13;99.91
68634;BME280;55625;47.072;22.192;2022-11-13T02:06:58;101395.56;;;4.08;100.00
68634;BME280;55625;47.072;22.192;2022-11-13T02:09:30;101396.38;;;4.08;100.00
68634;BME280;55625;47.072;22.192;2022-11-13T02:11:58;101397.72;;;4.14;99.87
68634;BME280;55625;47.072;22.192;2022-11-13T02:14:27;101402.09;;;4.12;100.00
68634;BME280;55625;47.072;22.192;2022-11-13T02:16:58;101397.94;;;4.05;100.00
68634;BME280;55625;47.072;22.192;2022-11-13T02:19:35;101391.88;;;4.03;100.00
68634;BME280;55625;47.072;22.192;2022-11-13T02:24:48;101393.50;;;4.04;99.89
68634;BME280;55625;47.072;22.192;2022-11-13T02:27:26;101403.03;;;4.00;100.00
68634;BME280;55625;47.072;22.192;2022-11-13T02:29:54;101391.34;;;3.98;100.00
68634;BME280;55625;47.072;22.192;2022-11-13T02:32:21;101389.72;;;3.97;100.00
68634;BME280;55625;47.072;22.192;2022-11-13T02:34:46;101398.25;;;4.00;100.00
68634;BME280;55625;47.072;22.192;2022-11-13T02:37:12;101400.22;;;4.00;99.57
68634;BME280;55625;47.072;22.192;2022-11-13T02:39:38;101404.22;;;3.99;100.00
68634;BME280;55625;47.072;22.192;2022-11-13T02:42:04;101415.91;;;4.01;100.00
68634;BME280;55625;47.072;22.192;2022-11-13T02:44:30;101403.03;;;4.00;100.00
68634;BME280;55625;47.072;22.192;2022-11-13T02:46:56;101405.47;;;4.01;99.23
68634;BME280;55625;47.072;22.192;2022-11-13T02:49:22;101402.22;;;3.99;99.58
68634;BME280;55625;47.072;22.192;2022-11-13T02:51:48;101406.22;;;3.98;99.26
68634;BME280;55625;47.072;22.192;2022-11-13T02:54:13;101406.22;;;3.98;99.46
68634;BME280;55625;47.072;22.192;2022-11-13T02:56:39;101408.47;;;3.93;99.45
68634;BME280;55625;47.072;22.192;2022-11-13T02:59:05;101410.75;;;3.87;99.47
68634;BME280;55625;47.072;22.192;2022-11-13T03:01:31;101408.25;;;3.82;99.49
68634;BME280;55625;47.072;22.192;2022-11-13T03:03:57;101407.81;;;3.80;99.53
68634;BME280;55625;47.072;22.192;2022-11-13T03:06:23;101409.44;;;3.81;99.68
68634;BME280;55625;47.072;22.192;2022-11-13T03:08:48;101415.50;;;3.83;99.04
68634;BME280;55625;47.072;22.192;2022-11-13T03:11:14;101411.06;;;3.82;99.53
68634;BME280;55625;47.072;22.192;2022-11-13T03:13:40;101407.88;;;3.84;98.57
68634;BME280;55625;47.072;22.192;2022-11-13T03:16:13;101420.66;;;3.81;99.17
68634;BME280;55625;47.072;22.192;2022-11-13T03:18:39;101416.97;;;3.77;98.99
68634;BME280;55625;47.072;22.192;2022-11-13T03:21:11;101418.59;;;3.78;98.76
68634;BME280;55625;47.072;22.192;2022-11-13T03:23:39;101406.47;;;3.74;99.07
68634;BME280;55625;47.072;22.192;2022-11-13T03:26:08;101405.56;;;3.70;98.50
68634;BME280;55625;47.072;22.192;2022-11-13T03:28:35;101401.41;;;3.64;98.70
68634;BME280;55625;47.072;22.192;2022-11-13T03:31:02;101404.56;;;3.62;99.13
68634;BME280;55625;47.072;22.192;2022-11-13T03:33:29;101398.13;;;3.62;99.39
68634;BME280;55625;47.072;22.192;2022-11-13T03:35:55;101395.19;;;3.55;99.68
68634;BME280;55625;47.072;22.192;2022-11-13T03:38:21;101398.34;;;3.53;100.00
68634;BME280;55625;47.072;22.192;2022-11-13T03:40:47;101401.53;;;3.52;100.00
68634;BME280;55625;47.072;22.192;2022-11-13T03:43:14;101399.53;;;3.52;100.00
68634;BME280;55625;47.072;22.192;2022-11-13T03:45:40;101401.59;;;3.55;100.00
68634;BME280;55625;47.072;22.192;2022-11-13T03:48:06;101397.16;;;3.54;99.37
68634;BME280;55625;47.072;22.192;2022-11-13T03:50:32;101395.19;;;3.55;100.00
68634;BME280;55625;47.072;22.192;2022-11-13T03:52:58;101401.53;;;3.52;100.00
68634;BME280;55625;47.072;22.192;2022-11-13T03:55:23;101391.47;;;3.51;100.00
68634;BME280;55625;47.072;22.192;2022-11-13T03:57:49;101393.84;;;3.49;100.00
68634;BME280;55625;47.072;22.192;2022-11-13T04:00:15;101389.41;;;3.48;100.00
68634;BME280;55625;47.072;22.192;2022-11-13T04:02:41;101387.78;;;3.47;100.00
68634;BME280;55625;47.072;22.192;2022-11-13T04:05:08;101390.94;;;3.45;100.00
68634;BME280;55625;47.072;22.192;2022-11-13T04:07:34;101397.72;;;3.44;100.00
68634;BME280;55625;47.072;22.192;2022-11-13T04:10:00;101398.09;;;3.42;99.82
68634;BME280;55625;47.072;22.192;2022-11-13T04:12:25;101410.50;;;3.41;100.00
68634;BME280;55625;47.072;22.192;2022-11-13T04:14:51;101400.47;;;3.40;100.00
68634;BME280;55625;47.072;22.192;2022-11-13T04:17:17;101394.84;;;3.40;100.00
68634;BME280;55625;47.072;22.192;2022-11-13T04:19:43;101394.47;;;3.42;99.86
68634;BME280;55625;47.072;22.192;2022-11-13T04:22:09;101388.78;;;3.38;99.79
68634;BME280;55625;47.072;22.192;2022-11-13T04:24:34;101393.09;;;3.36;100.00
68634;BME280;55625;47.072;22.192;2022-11-13T04:27:00;101398.19;;;3.30;100.00
68634;BME280;55625;47.072;22.192;2022-11-13T04:29:26;101396.47;;;3.26;100.00
68634;BME280;55625;47.072;22.192;2022-11-13T04:31:52;101385.09;;;3.19;100.00
68634;BME280;55625;47.072;22.192;2022-11-13T04:34:17;101399.47;;;3.17;100.00
68634;BME280;55625;47.072;22.192;2022-11-13T04:36:43;101397.47;;;3.18;100.00
68634;BME280;55625;47.072;22.192;2022-11-13T04:39:09;101391.50;;;3.19;100.00
68634;BME280;55625;47.072;22.192;2022-11-13T04:41:35;101388.41;;;3.24;100.00
68634;BME280;55625;47.072;22.192;2022-11-13T04:44:20;101378.19;;;3.32;100.00
68634;BME280;55625;47.072;22.192;2022-11-13T04:46:46;101370.31;;;3.37;100.00
68634;BME280;55625;47.072;22.192;2022-11-13T04:49:11;101363.34;;;3.31;100.00
68634;BME280;55625;47.072;22.192;2022-11-13T04:51:37;101362.44;;;3.27;100.00
68634;BME280;55625;47.072;22.192;2022-11-13T04:54:03;101358.09;;;3.30;100.00
68634;BME280;55625;47.072;22.192;2022-11-13T04:56:29;101366.16;;;3.31;100.00
68634;BME280;55625;47.072;22.192;2022-11-13T04:58:55;101361.72;;;3.30;100.00
68634;BME280;55625;47.072;22.192;2022-11-13T05:01:20;101364.78;;;3.25;100.00
68634;BME280;55625;47.072;22.192;2022-11-13T05:03:46;101368.34;;;3.22;100.00
68634;BME280;55625;47.072;22.192;2022-11-13T05:06:12;101363.44;;;3.19;100.00
68634;BME280;55625;47.072;22.192;2022-11-13T05:08:38;101366.25;;;3.19;100.00
68634;BME280;55625;47.072;22.192;2022-11-13T05:11:04;101364.19;;;3.16;100.00
68634;BME280;55625;47.072;22.192;2022-11-13T05:13:33;101360.13;;;3.14;100.00
68634;BME280;55625;47.072;22.192;2022-11-13T05:16:09;101360.47;;;3.12;100.00
68634;BME280;55625;47.072;22.192;2022-11-13T05:18:37;101360.47;;;3.12;100.00
68634;BME280;55625;47.072;22.192;2022-11-13T05:21:07;101360.94;;;3.14;100.00
68634;BME280;55625;47.072;22.192;2022-11-13T05:23:34;101353.78;;;3.17;100.00
68634;BME280;55625;47.072;22.192;2022-11-13T05:26:06;101356.31;;;3.22;100.00
68634;BME280;55625;47.072;22.192;2022-11-13T05:28:33;101354.75;;;3.24;100.00
68634;BME280;55625;47.072;22.192;2022-11-13T05:31:14;101358.47;;;3.28;100.00
68634;BME280;55625;47.072;22.192;2022-11-13T05:33:41;101355.66;;;3.28;100.00
68634;BME280;55625;47.072;22.192;2022-11-13T05:36:13;101344.34;;;3.25;100.00
68634;BME280;55625;47.072;22.192;2022-11-13T05:38:40;101352.84;;;3.28;100.00
68634;BME280;55625;47.072;22.192;2022-11-13T05:41:09;101350.94;;;3.32;100.00
68634;BME280;55625;47.072;22.192;2022-11-13T05:43:37;101350.19;;;3.35;100.00
68634;BME280;55625;47.072;22.192;2022-11-13T05:46:14;101351.13;;;3.39;100.00
68634;BME280;55625;47.072;22.192;2022-11-13T05:48:40;101348.78;;;3.41;100.00
68634;BME280;55625;47.072;22.192;2022-11-13T05:51:14;101361.63;;;3.42;100.00
68634;BME280;55625;47.072;22.192;2022-11-13T05:53:41;101354.09;;;3.47;100.00
68634;BME280;55625;47.072;22.192;2022-11-13T05:58:38;101350.72;;;3.57;100.00
68634;BME280;55625;47.072;22.192;2022-11-13T06:01:14;101363.72;;;3.65;100.00
68634;BME280;55625;47.072;22.192;2022-11-13T06:03:41;101365.53;;;3.73;100.00
68634;BME280;55625;47.072;22.192;2022-11-13T06:06:11;101359.69;;;3.82;100.00
68634;BME280;55625;47.072;22.192;2022-11-13T06:08:37;101367.91;;;3.90;100.00
68634;BME280;55625;47.072;22.192;2022-11-13T06:11:15;101361.28;;;3.98;100.00
68634;BME280;55625;47.072;22.192;2022-11-13T06:13:41;101365.13;;;4.10;100.00
68634;BME280;55625;47.072;22.192;2022-11-13T06:16:23;101376.94;;;4.19;100.00
68634;BME280;55625;47.072;22.192;2022-11-13T06:18:53;101361.56;;;4.32;100.00
68634;BME280;55625;47.072;22.192;2022-11-13T06:21:24;101355.41;;;4.46;100.00
68634;BME280;55625;47.072;22.192;2022-11-13T06:23:50;101359.31;;;4.60;100.00
68634;BME280;55625;47.072;22.192;2022-11-13T06:26:26;101351.88;;;4.72;100.00
68634;BME280;55625;47.072;22.192;2022-11-13T06:28:52;101356.13;;;4.85;100.00
68634;BME280;55625;47.072;22.192;2022-11-13T06:31:27;101359.53;;;4.94;99.41
68634;BME280;55625;47.072;22.192;2022-11-13T06:33:53;101352.41;;;5.00;98.65
68634;BME280;55625;47.072;22.192;2022-11-13T06:36:23;101351.31;;;5.08;98.14
68634;BME280;55625;47.072;22.192;2022-11-13T06:38:49;101355.88;;;5.16;97.20
68634;BME280;55625;47.072;22.192;2022-11-13T06:41:20;101366.88;;;5.25;97.10
68634;BME280;55625;47.072;22.192;2022-11-13T06:43:46;101356.59;;;5.36;96.30
68634;BME280;55625;47.072;22.192;2022-11-13T06:46:19;101353.50;;;5.45;95.79
68634;BME280;55625;47.072;22.192;2022-11-13T06:48:46;101352.00;;;5.51;95.41
68634;BME280;55625;47.072;22.192;2022-11-13T06:51:19;101359.38;;;5.59;95.46
68634;BME280;55625;47.072;22.192;2022-11-13T06:53:46;101353.06;;;5.69;94.72
68634;BME280;55625;47.072;22.192;2022-11-13T06:56:12;101358.84;;;5.80;94.63
68634;BME280;55625;47.072;22.192;2022-11-13T06:58:39;101357.31;;;5.82;94.36
68634;BME280;55625;47.072;22.192;2022-11-13T07:01:07;101359.34;;;5.85;93.54
68634;BME280;55625;47.072;22.192;2022-11-13T07:03:34;101356.22;;;5.90;93.63
68634;BME280;55625;47.072;22.192;2022-11-13T07:06:05;101354.28;;;5.95;93.04
68634;BME280;55625;47.072;22.192;2022-11-13T07:08:33;101347.31;;;5.88;93.98
68634;BME280;55625;47.072;22.192;2022-11-13T07:10:59;101350.25;;;5.96;93.27
68634;BME280;55625;47.072;22.192;2022-11-13T07:13:27;101349.56;;;6.06;94.29
68634;BME280;55625;47.072;22.192;2022-11-13T07:15:53;101346.50;;;6.14;93.52
68634;BME280;55625;47.072;22.192;2022-11-13T07:18:19;101345.44;;;6.30;94.10
68634;BME280;55625;47.072;22.192;2022-11-13T07:20:47;101341.63;;;6.45;93.51
68634;BME280;55625;47.072;22.192;2022-11-13T07:23:13;101342.13;;;6.58;92.37
68634;BME280;55625;47.072;22.192;2022-11-13T07:25:39;101346.28;;;6.71;92.57
68634;BME280;55625;47.072;22.192;2022-11-13T07:28:04;101348.09;;;6.90;92.49
68634;BME280;55625;47.072;22.192;2022-11-13T07:30:30;101329.72;;;7.06;90.49
68634;BME280;55625;47.072;22.192;2022-11-13T07:33:01;101341.97;;;7.25;89.84
68634;BME280;55625;47.072;22.192;2022-11-13T07:35:27;101336.88;;;7.44;88.75
68634;BME280;55625;47.072;22.192;2022-11-13T07:37:57;101335.00;;;7.66;88.54
68634;BME280;55625;47.072;22.192;2022-11-13T07:40:23;101335.09;;;7.84;86.96
68634;BME280;55625;47.072;22.192;2022-11-13T07:43:00;101324.28;;;8.00;86.12
68634;BME280;55625;47.072;22.192;2022-11-13T07:45:27;101314.66;;;8.19;85.11
68634;BME280;55625;47.072;22.192;2022-11-13T07:48:00;101318.75;;;8.32;84.33
68634;BME280;55625;47.072;22.192;2022-11-13T07:50:36;101314.78;;;8.55;85.13
68634;BME280;55625;47.072;22.192;2022-11-13T07:53:05;101311.19;;;8.79;85.04
68634;BME280;55625;47.072;22.192;2022-11-13T07:55:34;101305.53;;;9.08;82.98
68634;BME280;55625;47.072;22.192;2022-11-13T07:58:00;101307.97;;;9.23;81.76
68634;BME280;55625;47.072;22.192;2022-11-13T08:00:29;101312.84;;;9.30;81.09
68634;BME280;55625;47.072;22.192;2022-11-13T08:02:55;101310.78;;;9.41;80.80
68634;BME280;55625;47.072;22.192;2022-11-13T08:05:21;101311.19;;;9.50;80.33
68634;BME280;55625;47.072;22.192;2022-11-13T08:07:49;101306.72;;;9.60;80.32
68634;BME280;55625;47.072;22.192;2022-11-13T08:10:16;101305.44;;;9.86;79.83
68634;BME280;55625;47.072;22.192;2022-11-13T08:12:43;101310.19;;;10.07;78.93
68634;BME280;55625;47.072;22.192;2022-11-13T08:15:10;101303.28;;;10.25;77.51
68634;BME280;55625;47.072;22.192;2022-11-13T08:17:36;101304.34;;;10.53;76.71
68634;BME280;55625;47.072;22.192;2022-11-13T08:20:03;101298.47;;;10.81;76.29
68634;BME280;55625;47.072;22.192;2022-11-13T08:22:29;101308.00;;;11.09;75.64
68634;BME280;55625;47.072;22.192;2022-11-13T08:24:55;101298.03;;;11.31;75.20
68634;BME280;55625;47.072;22.192;2022-11-13T08:27:23;101289.31;;;11.52;73.50
68634;BME280;55625;47.072;22.192;2022-11-13T08:29:49;101289.13;;;11.70;72.76
68634;BME280;55625;47.072;22.192;2022-11-13T08:32:17;101289.41;;;11.83;72.47
68634;BME280;55625;47.072;22.192;2022-11-13T08:34:44;101295.72;;;12.01;72.92
68634;BME280;55625;47.072;22.192;2022-11-13T08:37:10;101289.72;;;12.23;71.96
68634;BME280;55625;47.072;22.192;2022-11-13T08:39:36;101292.78;;;12.39;71.49
68634;BME280;55625;47.072;22.192;2022-11-13T08:42:03;101285.81;;;12.70;71.42
68634;BME280;55625;47.072;22.192;2022-11-13T08:44:30;101297.19;;;12.97;69.33
68634;BME280;55625;47.072;22.192;2022-11-13T08:46:57;101286.72;;;13.18;69.14
68634;BME280;55625;47.072;22.192;2022-11-13T08:49:23;101291.78;;;13.30;67.08
68634;BME280;55625;47.072;22.192;2022-11-13T08:51:48;101284.78;;;13.34;68.00
68634;BME280;55625;47.072;22.192;2022-11-13T08:54:14;101282.78;;;13.55;69.00
68634;BME280;55625;47.072;22.192;2022-11-13T08:56:41;101284.38;;;13.79;67.68
68634;BME280;55625;47.072;22.192;2022-11-13T08:59:09;101288.38;;;14.02;66.70
68634;BME280;55625;47.072;22.192;2022-11-13T09:01:35;101284.00;;;14.17;66.96
68634;BME280;55625;47.072;22.192;2022-11-13T09:04:00;101284.25;;;14.42;66.26
68634;BME280;55625;47.072;22.192;2022-11-13T09:06:27;101286.09;;;14.52;65.92
68634;BME280;55625;47.072;22.192;2022-11-13T09:08:53;101290.88;;;14.75;66.50
68634;BME280;55625;47.072;22.192;2022-11-13T09:11:18;101293.81;;;14.88;63.40
68634;BME280;55625;47.072;22.192;2022-11-13T09:13:44;101281.59;;;14.87;63.95
68634;BME280;55625;47.072;22.192;2022-11-13T09:16:11;101279.00;;;14.93;63.88
68634;BME280;55625;47.072;22.192;2022-11-13T09:18:37;101277.94;;;14.87;63.67
68634;BME280;55625;47.072;22.192;2022-11-13T09:21:03;101276.50;;;14.95;64.60
68634;BME280;55625;47.072;22.192;2022-11-13T09:23:29;101275.25;;;15.12;63.96
68634;BME280;55625;47.072;22.192;2022-11-13T09:25:55;101268.09;;;15.37;63.63
68634;BME280;55625;47.072;22.192;2022-11-13T09:28:20;101263.44;;;15.43;63.19
68634;BME280;55625;47.072;22.192;2022-11-13T09:30:46;101274.06;;;15.59;63.82
68634;BME280;55625;47.072;22.192;2022-11-13T09:33:12;101259.16;;;15.80;64.53
68634;BME280;55625;47.072;22.192;2022-11-13T09:35:42;101263.94;;;15.99;63.53
68634;BME280;55625;47.072;22.192;2022-11-13T09:38:13;101258.00;;;16.06;63.28
68634;BME280;55625;47.072;22.192;2022-11-13T09:49:19;101243.84;;;16.41;60.82
68634;BME280;55625;47.072;22.192;2022-11-13T09:51:54;101242.81;;;16.48;60.14
68634;BME280;55625;47.072;22.192;2022-11-13T09:54:21;101238.50;;;16.68;59.61
68634;BME280;55625;47.072;22.192;2022-11-13T10:03:23;101233.38;;;17.11;57.59
68634;BME280;55625;47.072;22.192;2022-11-13T10:06:02;101231.09;;;17.05;55.66
68634;BME280;55625;47.072;22.192;2022-11-13T10:08:52;101220.28;;;17.22;55.28
68634;BME280;55625;47.072;22.192;2022-11-13T10:14:18;101219.16;;;17.54;55.38
68634;BME280;55625;47.072;22.192;2022-11-13T10:17:17;101221.59;;;17.43;55.59
68634;BME280;55625;47.072;22.192;2022-11-13T10:20:00;101207.50;;;16.76;57.41
68634;BME280;55625;47.072;22.192;2022-11-13T10:22:38;101191.25;;;16.86;57.36
68634;BME280;55625;47.072;22.192;2022-11-13T10:25:25;101186.25;;;16.99;56.71
68634;BME280;55625;47.072;22.192;2022-11-13T10:27:56;101183.59;;;17.04;57.42
68634;BME280;55625;47.072;22.192;2022-11-13T10:30:22;101192.66;;;17.16;56.46
68634;BME280;55625;47.072;22.192;2022-11-13T10:32:49;101191.22;;;17.33;56.76
68634;BME280;55625;47.072;22.192;2022-11-13T10:38:49;101178.94;;;17.32;55.75
68634;BME280;55625;47.072;22.192;2022-11-13T10:41:20;101172.84;;;17.30;56.86
68634;BME280;55625;47.072;22.192;2022-11-13T10:44:03;101176.06;;;17.32;55.21
68634;BME280;55625;47.072;22.192;2022-11-13T10:46:30;101167.63;;;17.16;55.72
68634;BME280;55625;47.072;22.192;2022-11-13T10:49:12;101169.06;;;17.33;56.40
68634;BME280;55625;47.072;22.192;2022-11-13T10:51:38;101162.34;;;17.49;54.63
68634;BME280;55625;47.072;22.192;2022-11-13T10:54:34;101163.34;;;17.55;54.65
68634;BME280;55625;47.072;22.192;2022-11-13T10:57:04;101159.00;;;17.73;55.46
68634;BME280;55625;47.072;22.192;2022-11-13T10:59:42;101157.38;;;17.28;55.70
68634;BME280;55625;47.072;22.192;2022-11-13T11:02:23;101156.09;;;17.29;55.81
68634;BME280;55625;47.072;22.192;2022-11-13T11:05:16;101155.94;;;17.67;56.15
68634;BME280;55625;47.072;22.192;2022-11-13T11:07:43;101150.63;;;17.78;54.47
68634;BME280;55625;47.072;22.192;2022-11-13T11:10:27;101150.38;;;17.94;56.23
68634;BME280;55625;47.072;22.192;2022-11-13T11:12:58;101150.31;;;17.63;55.84
68634;BME280;55625;47.072;22.192;2022-11-13T11:15:46;101144.53;;;17.76;56.56
68634;BME280;55625;47.072;22.192;2022-11-13T11:18:27;101140.31;;;17.90;56.30
68634;BME280;55625;47.072;22.192;2022-11-13T11:20:58;101141.94;;;18.00;55.28
68634;BME280;55625;47.072;22.192;2022-11-13T11:29:20;101121.34;;;17.27;55.98
68634;BME280;55625;47.072;22.192;2022-11-13T11:35:23;101118.38;;;17.39;54.80
68634;BME280;55625;47.072;22.192;2022-11-13T11:37:57;101113.78;;;17.20;54.18
68634;BME280;55625;47.072;22.192;2022-11-13T11:40:33;101118.09;;;17.03;56.60
68634;BME280;55625;47.072;22.192;2022-11-13T11:43:33;101110.03;;;17.11;57.26
68634;BME280;55625;47.072;22.192;2022-11-13T11:46:04;101108.75;;;17.12;57.21
68634;BME280;55625;47.072;22.192;2022-11-13T11:48:31;101102.16;;;17.02;56.74
68634;BME280;55625;47.072;22.192;2022-11-13T11:51:30;101107.56;;;17.00;57.35
68634;BME280;55625;47.072;22.192;2022-11-13T12:00:01;101099.09;;;16.11;56.71
68634;BME280;55625;47.072;22.192;2022-11-13T12:09:02;101088.56;;;15.95;59.44
68634;BME280;55625;47.072;22.192;2022-11-13T12:11:34;101088.78;;;16.01;59.69
68634;BME280;55625;47.072;22.192;2022-11-13T12:20:22;101074.94;;;15.45;59.74
68634;BME280;55625;47.072;22.192;2022-11-13T12:23:08;101072.94;;;15.58;59.83
68634;BME280;55625;47.072;22.192;2022-11-13T12:26:27;101069.78;;;15.40;59.96
68634;BME280;55625;47.072;22.192;2022-11-13T12:29:26;101070.69;;;15.37;59.83
68634;BME280;55625;47.072;22.192;2022-11-13T12:34:58;101063.84;;;15.05;61.68
68634;BME280;55625;47.072;22.192;2022-11-13T12:40:30;101062.75;;;14.86;61.96
68634;BME280;55625;47.072;22.192;2022-11-13T12:46:07;101054.97;;;14.87;62.84
68634;BME280;55625;47.072;22.192;2022-11-13T12:48:40;101046.59;;;14.80;62.37
68634;BME280;55625;47.072;22.192;2022-11-13T12:51:10;101056.69;;;14.68;62.96
68634;BME280;55625;47.072;22.192;2022-11-13T12:53:52;101058.41;;;14.66;63.73
68634;BME280;55625;47.072;22.192;2022-11-13T13:01:58;101056.63;;;14.72;65.94
68634;BME280;55625;47.072;22.192;2022-11-13T13:11:09;101059.59;;;14.52;66.25
68634;BME280;55625;47.072;22.192;2022-11-13T13:16:27;101058.25;;;14.24;66.67
68634;BME280;55625;47.072;22.192;2022-11-13T13:19:27;101052.97;;;14.22;66.78
68634;BME280;55625;47.072;22.192;2022-11-13T13:21:53;101049.88;;;14.17;67.45
68634;BME280;55625;47.072;22.192;2022-11-13T13:24:33;101049.50;;;14.15;67.47
68634;BME280;55625;47.072;22.192;2022-11-13T13:27:00;101049.16;;;14.13;68.25
68634;BME280;55625;47.072;22.192;2022-11-13T13:29:28;101046.09;;;14.04;68.06
68634;BME280;55625;47.072;22.192;2022-11-13T13:32:47;101039.69;;;13.99;69.05
68634;BME280;55625;47.072;22.192;2022-11-13T13:36:02;101038.25;;;13.91;69.34
68634;BME280;55625;47.072;22.192;2022-11-13T13:38:59;101040.03;;;13.85;69.16
68634;BME280;55625;47.072;22.192;2022-11-13T13:47:26;101025.28;;;13.71;69.53
68634;BME280;55625;47.072;22.192;2022-11-13T13:49:53;101023.59;;;13.73;68.90
68634;BME280;55625;47.072;22.192;2022-11-13T13:52:27;101018.94;;;13.63;69.29
68634;BME280;55625;47.072;22.192;2022-11-13T13:54:55;101016.44;;;13.49;68.90
68634;BME280;55625;47.072;22.192;2022-11-13T13:57:22;101018.28;;;13.39;68.73
68634;BME280;55625;47.072;22.192;2022-11-13T13:59:48;101024.94;;;13.32;69.18
68634;BME280;55625;47.072;22.192;2022-11-13T14:02:21;101011.38;;;13.20;70.17
68634;BME280;55625;47.072;22.192;2022-11-13T14:04:53;101013.88;;;13.15;70.46
68634;BME280;55625;47.072;22.192;2022-11-13T14:07:27;101016.59;;;13.02;70.44
68634;BME280;55625;47.072;22.192;2022-11-13T14:10:18;101010.34;;;12.91;70.98
68634;BME280;55625;47.072;22.192;2022-11-13T14:12:45;101013.31;;;12.84;71.27
68634;BME280;55625;47.072;22.192;2022-11-13T14:15:33;101014.75;;;12.72;71.17
68634;BME280;55625;47.072;22.192;2022-11-13T14:18:15;101006.38;;;12.65;71.72
68634;BME280;55625;47.072;22.192;2022-11-13T14:20:56;101013.50;;;12.53;71.61
68634;BME280;55625;47.072;22.192;2022-11-13T14:23:31;101004.00;;;12.40;71.99
68634;BME280;55625;47.072;22.192;2022-11-13T14:26:00;101000.09;;;12.30;72.77